createdAt,value
2023-08-14T00:00:43.988Z,17.38
2023-08-14T00:05:47.094Z,17.35
2023-08-14T00:10:52.338Z,17.37
2023-08-14T00:15:55.395Z,17.38
2023-08-14T00:20:58.272Z,17.44
2023-08-14T00:26:02.485Z,17.36
2023-08-14T00:31:05.397Z,17.35
2023-08-14T00:36:08.364Z,17.33
2023-08-14T00:41:12.806Z,17.34
2023-08-14T00:46:16.821Z,17.36
2023-08-14T00:51:22.900Z,17.40
2023-08-14T00:56:29.326Z,17.42
2023-08-14T01:01:32.269Z,17.38
2023-08-14T01:06:35.138Z,17.43
2023-08-14T01:11:48.333Z,17.35
2023-08-14T01:16:56.040Z,17.33
2023-08-14T01:22:06.131Z,17.25
2023-08-14T01:27:10.950Z,17.11
2023-08-14T01:32:13.794Z,17.06
2023-08-14T01:37:24.311Z,17.08
2023-08-14T01:42:34.697Z,17.04
2023-08-14T01:47:40.451Z,17.06
2023-08-14T01:52:43.379Z,17.00
2023-08-14T01:57:47.542Z,16.98
2023-08-14T02:02:50.665Z,16.89
2023-08-14T02:07:55.376Z,16.88
2023-08-14T02:12:59.588Z,16.88
2023-08-14T02:18:02.522Z,16.91
2023-08-14T02:23:06.035Z,16.92
2023-08-14T02:28:10.278Z,16.95
2023-08-14T02:33:13.316Z,16.85
2023-08-14T02:38:17.253Z,16.73
2023-08-14T02:43:21.736Z,16.53
2023-08-14T02:48:24.962Z,16.54
2023-08-14T02:53:27.813Z,16.53
2023-08-14T02:58:32.604Z,16.58
2023-08-14T03:03:35.556Z,16.58
2023-08-14T03:08:38.512Z,16.54
2023-08-14T03:13:42.796Z,16.46
2023-08-14T03:18:45.710Z,16.48
2023-08-14T03:23:49.384Z,16.50
2023-08-14T03:28:53.697Z,16.38
2023-08-14T03:33:56.726Z,16.27
2023-08-14T03:39:01.071Z,16.18
2023-08-14T03:44:07.013Z,16.20
2023-08-14T03:49:10.904Z,16.20
2023-08-14T03:54:13.896Z,16.12
2023-08-14T03:59:18.145Z,15.59
2023-08-14T04:04:21.145Z,15.75
2023-08-14T04:09:24.011Z,15.43
2023-08-14T04:14:28.330Z,15.26
2023-08-14T04:19:31.205Z,15.15
2023-08-14T04:24:34.023Z,15.50
2023-08-14T04:29:38.276Z,15.69
2023-08-14T04:34:41.194Z,15.93
2023-08-14T04:39:44.458Z,16.01
2023-08-14T04:44:48.766Z,16.04
2023-08-14T04:49:51.741Z,16.11
2023-08-14T04:54:54.671Z,16.18
2023-08-14T05:00:02.622Z,16.18
2023-08-14T05:05:07.066Z,16.30
2023-08-14T05:10:10.231Z,16.41
2023-08-14T05:15:14.641Z,16.50
2023-08-14T05:20:17.769Z,16.62
2023-08-14T05:25:20.859Z,16.69
2023-08-14T05:30:25.043Z,16.79
2023-08-14T05:35:28.301Z,16.83
2023-08-14T05:40:31.329Z,16.85
2023-08-14T05:45:37.734Z,16.95
2023-08-14T05:50:41.442Z,17.22
2023-08-14T05:55:44.487Z,17.32
2023-08-14T06:00:48.671Z,17.62
2023-08-14T06:05:51.615Z,17.99
2023-08-14T06:10:54.451Z,18.25
2023-08-14T06:15:58.698Z,18.43
2023-08-14T06:21:01.569Z,18.60
2023-08-14T06:26:04.884Z,18.77
2023-08-14T06:31:10.291Z,19.01
2023-08-14T06:36:13.247Z,19.21
2023-08-14T06:41:16.119Z,19.30
2023-08-14T06:46:20.416Z,19.13
2023-08-14T06:51:23.339Z,19.59
2023-08-14T06:56:27.088Z,19.94
2023-08-14T07:01:31.340Z,20.26
2023-08-14T07:06:34.259Z,20.79
2023-08-14T07:11:39.843Z,20.95
2023-08-14T07:16:44.162Z,20.81
2023-08-14T07:21:47.267Z,21.11
2023-08-14T07:26:50.088Z,21.60
2023-08-14T07:31:54.240Z,22.02
2023-08-14T07:36:57.066Z,22.14
2023-08-14T07:41:59.953Z,22.20
2023-08-14T07:47:04.173Z,22.37
2023-08-14T07:52:07.744Z,22.76
2023-08-14T07:57:10.816Z,22.98
2023-08-14T08:02:15.055Z,23.19
2023-08-14T08:07:18.164Z,23.58
2023-08-14T08:12:21.491Z,24.13
2023-08-14T08:17:25.738Z,24.59
2023-08-14T08:22:28.669Z,24.70
2023-08-14T08:27:31.566Z,23.42
2023-08-14T08:32:35.792Z,24.45
2023-08-14T08:37:38.700Z,24.77
2023-08-14T08:42:42.214Z,24.86
2023-08-14T08:47:50.857Z,24.25
2023-08-14T08:52:54.777Z,24.46
2023-08-14T08:57:59.514Z,24.88
2023-08-14T09:03:03.904Z,24.84
2023-08-14T09:08:09.567Z,25.08
2023-08-14T09:18:22.108Z,25.03
2023-08-14T09:23:25.168Z,25.35
2023-08-14T09:28:29.053Z,26.06
2023-08-14T09:33:34.105Z,26.32
2023-08-14T09:38:37.105Z,26.31
2023-08-14T09:43:41.544Z,27.06
2023-08-14T09:48:47.448Z,27.00
2023-08-14T09:53:51.709Z,27.25
2023-08-14T09:58:56.251Z,27.56
2023-08-14T10:04:01.504Z,27.75
2023-08-14T10:09:05.976Z,27.96
2023-08-14T10:14:10.499Z,28.04
2023-08-14T10:19:19.153Z,27.62
2023-08-14T10:24:24.453Z,28.30
2023-08-14T10:29:27.561Z,29.15
2023-08-14T10:34:32.742Z,28.49
2023-08-14T10:39:37.626Z,27.45
2023-08-14T10:44:40.509Z,28.49
2023-08-14T10:49:47.993Z,29.28
2023-08-14T10:54:55.032Z,28.03
2023-08-14T10:59:59.377Z,28.53
2023-08-14T11:05:13.881Z,28.96
2023-08-14T11:10:17.305Z,28.53
2023-08-14T11:15:22.253Z,28.43
2023-08-14T11:20:29.184Z,27.60
2023-08-14T11:25:32.617Z,29.17
2023-08-14T11:30:37.176Z,30.36
2023-08-14T11:35:41.384Z,30.35
2023-08-14T11:40:44.688Z,30.99
2023-08-14T11:45:47.619Z,30.52
2023-08-14T11:50:52.328Z,30.74
2023-08-14T11:55:55.400Z,30.63
2023-08-14T12:00:58.583Z,30.55
2023-08-14T12:06:05.225Z,30.40
2023-08-14T12:11:08.365Z,29.81
2023-08-14T12:16:17.804Z,31.02
2023-08-14T12:21:28.526Z,29.46
2023-08-14T12:26:38.017Z,30.09
2023-08-14T12:31:40.941Z,30.25
2023-08-14T12:36:45.153Z,28.91
2023-08-14T12:41:47.998Z,28.56
2023-08-14T12:46:50.875Z,28.28
2023-08-14T12:51:55.100Z,29.32
2023-08-14T12:57:01.637Z,30.36
2023-08-14T13:02:04.955Z,29.78
2023-08-14T13:07:09.252Z,28.76
2023-08-14T13:12:12.116Z,28.79
2023-08-14T13:17:14.977Z,28.32
2023-08-14T13:22:19.442Z,28.63
2023-08-14T13:27:22.773Z,28.65
2023-08-14T13:32:25.999Z,29.21
2023-08-14T13:37:30.288Z,29.30
2023-08-14T13:42:33.056Z,28.39
2023-08-14T13:47:43.985Z,28.50
2023-08-14T13:52:56.693Z,28.43
2023-08-14T13:57:59.932Z,28.18
2023-08-14T14:08:10.357Z,28.79
2023-08-14T14:13:13.262Z,28.88
2023-08-14T14:18:16.501Z,28.44
2023-08-14T14:23:20.636Z,28.30
2023-08-14T14:28:23.502Z,28.20
2023-08-14T14:33:26.513Z,27.72
2023-08-14T14:38:30.939Z,27.79
2023-08-14T14:43:34.181Z,27.67
2023-08-14T14:48:37.049Z,27.87
2023-08-14T14:53:41.287Z,28.02
2023-08-14T14:58:44.069Z,28.59
2023-08-14T15:03:47.027Z,29.49
2023-08-14T15:08:51.209Z,29.51
2023-08-14T15:13:54.003Z,28.80
2023-08-14T15:18:56.932Z,28.83
2023-08-14T15:24:01.052Z,28.86
2023-08-14T15:29:03.959Z,28.13
2023-08-14T15:34:06.958Z,28.00
2023-08-14T15:39:11.089Z,28.46
2023-08-14T15:44:13.948Z,28.97
2023-08-14T15:49:16.814Z,28.50
2023-08-14T15:54:21.133Z,29.13
2023-08-14T15:59:24.074Z,29.24
2023-08-14T16:04:26.886Z,29.40
2023-08-14T16:09:31.132Z,29.43
2023-08-14T16:14:33.967Z,28.84
2023-08-14T16:19:37.033Z,28.47
2023-08-14T16:24:41.543Z,28.16
2023-08-14T16:29:44.771Z,27.77
2023-08-14T16:34:48.791Z,27.46
2023-08-14T16:39:53.203Z,27.63
2023-08-14T16:44:56.404Z,27.23
2023-08-14T16:49:59.279Z,26.74
2023-08-14T16:55:03.785Z,26.44
2023-08-14T17:00:08.142Z,26.44
2023-08-14T17:05:11.574Z,26.71
2023-08-14T17:10:16.094Z,26.98
2023-08-14T17:20:26.675Z,28.55
2023-08-14T17:25:30.894Z,31.74
2023-08-14T17:30:37.310Z,31.65
2023-08-14T17:35:40.087Z,32.15
2023-08-14T17:40:44.595Z,31.82
2023-08-14T17:45:49.611Z,30.53
2023-08-14T17:50:52.997Z,28.45
2023-08-14T17:55:57.200Z,27.33
2023-08-14T18:01:00.432Z,26.60
2023-08-14T18:06:04.509Z,26.35
2023-08-14T18:11:08.784Z,25.90
2023-08-14T18:16:11.621Z,25.74
2023-08-14T18:21:21.242Z,25.61
2023-08-14T18:26:31.630Z,25.50
2023-08-14T18:31:34.475Z,25.40
2023-08-14T18:36:37.411Z,25.34
2023-08-14T18:41:41.576Z,25.27
2023-08-14T18:46:44.768Z,25.12
2023-08-14T18:51:47.644Z,24.89
2023-08-14T18:56:52.068Z,24.73
2023-08-14T19:01:55.002Z,24.66
2023-08-14T19:06:57.779Z,24.49
2023-08-14T19:12:01.949Z,24.47
2023-08-14T19:17:05.276Z,24.37
2023-08-14T19:22:15.166Z,24.22
2023-08-14T19:27:19.798Z,24.15
2023-08-14T19:32:22.940Z,24.02
2023-08-14T19:37:25.833Z,23.92
2023-08-14T19:42:30.016Z,23.88
2023-08-14T19:47:32.878Z,23.86
2023-08-14T19:52:35.834Z,23.85
2023-08-14T19:57:40.139Z,23.82
2023-08-14T20:02:43.018Z,23.85
2023-08-14T20:07:45.827Z,23.77
2023-08-14T20:12:50.094Z,23.74
2023-08-14T20:17:52.900Z,23.75
2023-08-14T20:22:55.703Z,23.66
2023-08-14T20:27:59.836Z,23.60
2023-08-14T20:33:02.669Z,23.52
2023-08-14T20:38:05.995Z,23.40
2023-08-14T20:43:12.387Z,23.30
2023-08-14T20:48:15.235Z,23.23
2023-08-14T20:53:18.115Z,23.09
2023-08-14T20:58:22.285Z,22.95
2023-08-14T21:03:25.360Z,22.89
2023-08-14T21:08:28.241Z,22.87
2023-08-14T21:13:32.445Z,22.91
2023-08-14T21:18:35.236Z,22.96
2023-08-14T21:23:38.070Z,22.92
2023-08-14T21:28:43.750Z,22.95
2023-08-14T21:33:48.391Z,22.86
2023-08-14T21:38:51.185Z,22.88
2023-08-14T21:43:55.312Z,22.81
2023-08-14T21:48:58.168Z,22.73
2023-08-14T21:54:00.947Z,22.70
2023-08-14T21:59:05.232Z,22.63
2023-08-14T22:04:08.127Z,22.56
2023-08-14T22:09:10.973Z,22.53
2023-08-14T22:14:15.217Z,22.54
2023-08-14T22:19:17.971Z,22.49
2023-08-14T22:24:38.434Z,22.45
2023-08-14T22:29:44.311Z,22.34
2023-08-14T22:34:47.104Z,22.32
2023-08-14T22:39:49.870Z,22.36
2023-08-14T22:44:53.940Z,22.39
2023-08-14T22:49:56.838Z,22.30
2023-08-14T22:54:59.563Z,22.23
2023-08-14T23:00:03.780Z,22.23
2023-08-14T23:05:08.203Z,22.30
2023-08-14T23:10:11.359Z,22.35
2023-08-14T23:15:15.513Z,22.38
2023-08-14T23:20:18.420Z,22.25
2023-08-14T23:25:21.265Z,22.09
2023-08-14T23:30:25.410Z,21.97
2023-08-14T23:35:28.212Z,21.95
2023-08-14T23:40:31.274Z,21.95
2023-08-14T23:45:35.440Z,21.84
2023-08-14T23:50:38.482Z,21.74
2023-08-14T23:55:44.942Z,21.75
